createdAt,value
2022-12-15T00:01:05.313Z,97.22
2022-12-15T00:04:26.796Z,98.00
2022-12-15T00:07:48.042Z,98.07
2022-12-15T00:11:09.795Z,98.08
2022-12-15T00:14:30.987Z,97.63
2022-12-15T00:17:52.162Z,97.84
2022-12-15T00:21:18.499Z,98.20
2022-12-15T00:24:40.321Z,98.87
2022-12-15T00:28:01.519Z,98.95
2022-12-15T00:31:23.413Z,98.88
2022-12-15T00:34:44.494Z,98.79
2022-12-15T00:38:05.674Z,99.03
2022-12-15T00:41:08.312Z,98.95
2022-12-15T00:44:15.759Z,98.98
2022-12-15T00:47:20.001Z,98.79
2022-12-15T00:50:41.358Z,98.93
2022-12-15T00:54:03.117Z,98.93
2022-12-15T00:57:24.506Z,98.40
2022-12-15T01:00:46.211Z,98.20
2022-12-15T01:04:07.842Z,98.52
2022-12-15T01:07:29.282Z,98.77
2022-12-15T01:10:50.865Z,98.56
2022-12-15T01:14:12.055Z,98.55
2022-12-15T01:17:34.427Z,98.84
2022-12-15T01:20:37.067Z,98.49
2022-12-15T01:23:41.183Z,99.08
2022-12-15T01:26:43.867Z,99.06
2022-12-15T01:29:46.799Z,99.39
2022-12-15T01:32:49.974Z,99.36
2022-12-15T01:36:01.241Z,98.60
2022-12-15T01:39:03.965Z,98.72
2022-12-15T01:42:12.590Z,98.24
2022-12-15T01:45:31.416Z,99.13
2022-12-15T01:48:46.510Z,99.66
2022-12-15T01:51:53.526Z,99.51
2022-12-15T01:54:58.332Z,100.00
2022-12-15T01:58:06.829Z,100.00
2022-12-15T02:01:10.594Z,99.91
2022-12-15T02:04:14.929Z,100.00
2022-12-15T02:07:18.799Z,100.00
2022-12-15T02:10:24.481Z,100.00
2022-12-15T02:13:49.679Z,100.00
2022-12-15T02:17:04.887Z,100.00
2022-12-15T02:20:33.748Z,100.00
2022-12-15T02:23:41.995Z,100.00
2022-12-15T02:27:12.989Z,100.00
2022-12-15T02:30:22.884Z,100.00
2022-12-15T02:33:30.154Z,100.00
2022-12-15T02:36:46.905Z,100.00
2022-12-15T02:39:49.845Z,100.00
2022-12-15T02:42:55.950Z,100.00
2022-12-15T02:46:12.602Z,100.00
2022-12-15T02:49:23.851Z,100.00
2022-12-15T02:52:32.983Z,100.00
2022-12-15T02:55:50.378Z,100.00
2022-12-15T02:59:18.735Z,100.00
2022-12-15T03:02:25.330Z,100.00
2022-12-15T03:05:28.379Z,100.00
2022-12-15T03:08:31.047Z,100.00
2022-12-15T03:11:34.663Z,100.00
2022-12-15T03:14:37.326Z,100.00
2022-12-15T03:17:40.285Z,100.00
2022-12-15T03:20:43.053Z,100.00
2022-12-15T03:23:46.071Z,100.00
2022-12-15T03:26:50.287Z,100.00
2022-12-15T03:29:53.212Z,100.00
2022-12-15T03:32:55.757Z,100.00
2022-12-15T03:35:58.665Z,100.00
2022-12-15T03:39:01.370Z,99.88
2022-12-15T03:42:04.523Z,100.00
2022-12-15T03:45:07.516Z,100.00
2022-12-15T03:48:10.495Z,100.00
2022-12-15T03:51:13.011Z,100.00
2022-12-15T03:54:15.889Z,100.00
2022-12-15T03:57:18.657Z,100.00
2022-12-15T04:00:22.612Z,100.00
2022-12-15T04:03:25.879Z,100.00
2022-12-15T04:06:29.733Z,100.00
2022-12-15T04:09:32.653Z,100.00
2022-12-15T04:12:35.183Z,100.00
2022-12-15T04:15:39.960Z,100.00
2022-12-15T04:18:42.822Z,100.00
2022-12-15T04:21:45.684Z,100.00
2022-12-15T04:25:07.037Z,100.00
2022-12-15T04:28:29.752Z,100.00
2022-12-15T04:31:52.347Z,100.00
2022-12-15T04:35:13.772Z,100.00
2022-12-15T04:38:35.075Z,100.00
2022-12-15T04:41:56.972Z,100.00
2022-12-15T04:45:21.656Z,100.00
2022-12-15T04:48:43.279Z,100.00
2022-12-15T04:52:04.531Z,100.00
2022-12-15T04:55:26.372Z,100.00
2022-12-15T04:58:47.576Z,100.00
2022-12-15T05:02:09.551Z,100.00
2022-12-15T05:05:31.037Z,100.00
2022-12-15T05:08:52.571Z,100.00
2022-12-15T05:12:13.738Z,100.00
2022-12-15T05:15:35.522Z,100.00
2022-12-15T05:18:57.127Z,100.00
2022-12-15T05:22:18.416Z,100.00
2022-12-15T05:25:39.488Z,100.00
2022-12-15T05:29:01.025Z,99.85
2022-12-15T05:32:03.712Z,100.00
2022-12-15T05:35:06.843Z,100.00
2022-12-15T05:38:09.449Z,100.00
2022-12-15T05:41:12.420Z,99.87
2022-12-15T05:44:15.151Z,100.00
2022-12-15T05:47:18.180Z,100.00
2022-12-15T05:50:22.192Z,100.00
2022-12-15T05:53:25.018Z,99.72
2022-12-15T05:56:28.730Z,99.89
2022-12-15T05:59:31.976Z,99.23
2022-12-15T06:02:34.914Z,99.55
2022-12-15T06:05:38.521Z,98.93
2022-12-15T06:08:43.155Z,98.70
2022-12-15T06:11:46.684Z,98.10
2022-12-15T06:14:49.891Z,98.07
2022-12-15T06:17:55.835Z,98.26
2022-12-15T06:21:05.458Z,98.47
2022-12-15T06:24:08.538Z,98.53
2022-12-15T06:27:11.202Z,98.03
2022-12-15T06:30:16.189Z,97.38
2022-12-15T06:33:19.834Z,96.93
2022-12-15T06:36:26.614Z,96.72
2022-12-15T06:39:30.005Z,96.81
2022-12-15T06:42:38.755Z,96.51
2022-12-15T06:45:51.162Z,96.64
2022-12-15T06:49:03.563Z,96.50
2022-12-15T06:52:09.645Z,96.70
2022-12-15T06:55:14.818Z,97.20
2022-12-15T06:58:25.297Z,95.39
2022-12-15T07:01:33.913Z,94.74
2022-12-15T07:04:47.585Z,94.79
2022-12-15T07:08:02.207Z,95.74
2022-12-15T07:11:15.013Z,95.79
2022-12-15T07:17:46.115Z,96.29
2022-12-15T07:21:27.933Z,96.45
2022-12-15T07:24:37.576Z,96.09
2022-12-15T07:27:49.900Z,96.11
2022-12-15T07:30:56.324Z,96.18
2022-12-15T07:34:12.471Z,94.89
2022-12-15T07:37:43.322Z,95.18
2022-12-15T07:44:38.296Z,94.82
2022-12-15T07:47:52.205Z,94.67
2022-12-15T07:51:21.578Z,94.86
2022-12-15T07:54:40.502Z,95.47
2022-12-15T07:57:47.127Z,95.04
2022-12-15T08:01:03.657Z,94.35
2022-12-15T08:04:10.657Z,94.14
2022-12-15T08:07:15.343Z,94.25
2022-12-15T08:10:30.958Z,94.03
2022-12-15T08:14:13.264Z,94.15
2022-12-15T08:17:23.139Z,94.27
2022-12-15T08:20:37.538Z,94.43
2022-12-15T08:23:54.959Z,93.43
2022-12-15T08:30:39.423Z,93.24
2022-12-15T08:33:44.070Z,92.70
2022-12-15T08:37:13.415Z,92.61
2022-12-15T08:40:17.732Z,92.67
2022-12-15T08:43:32.408Z,92.59
2022-12-15T08:46:43.331Z,92.87
2022-12-15T08:49:50.910Z,92.63
2022-12-15T08:53:28.975Z,91.94
2022-12-15T08:56:35.842Z,92.54
2022-12-15T08:59:47.434Z,92.60
2022-12-15T09:02:54.833Z,91.87
2022-12-15T09:06:07.339Z,91.15
2022-12-15T09:39:22.970Z,91.40
2022-12-15T09:42:45.033Z,90.95
2022-12-15T11:41:44.885Z,92.98
2022-12-15T11:45:21.908Z,93.41
2022-12-15T11:48:30.602Z,93.41
2022-12-15T11:51:51.859Z,92.86
2022-12-15T11:54:59.920Z,92.58
2022-12-15T11:58:20.385Z,92.38
2022-12-15T12:05:13.979Z,93.02
2022-12-15T12:08:54.842Z,94.64
2022-12-15T12:12:12.109Z,94.55
2022-12-15T12:15:33.555Z,94.72
2022-12-15T12:18:50.492Z,93.89
2022-12-15T12:22:21.653Z,95.19
2022-12-15T12:25:25.921Z,95.29
2022-12-15T12:28:36.283Z,95.61
2022-12-15T12:31:59.075Z,95.62
2022-12-15T12:35:32.766Z,94.99
2022-12-15T12:38:39.393Z,95.19
2022-12-15T12:41:51.626Z,94.88
2022-12-15T12:44:54.644Z,96.37
2022-12-15T12:48:02.927Z,98.70
2022-12-15T12:51:29.243Z,96.39
2022-12-15T12:54:37.868Z,96.01
2022-12-15T12:57:42.411Z,95.06
2022-12-15T13:01:06.420Z,94.45
2022-12-15T13:04:34.039Z,94.23
2022-12-15T13:07:40.849Z,94.48
2022-12-15T13:10:47.395Z,94.33
2022-12-15T13:13:53.164Z,94.62
2022-12-15T13:17:36.667Z,94.34
2022-12-15T13:20:41.625Z,94.40
2022-12-15T13:23:46.698Z,94.40
2022-12-15T13:26:53.386Z,94.26
2022-12-15T13:30:02.478Z,94.07
2022-12-15T13:33:19.105Z,94.51
2022-12-15T13:36:37.183Z,94.79
2022-12-15T13:39:55.462Z,95.11
2022-12-15T13:43:05.210Z,94.55
2022-12-15T13:46:18.049Z,95.30
2022-12-15T13:49:33.365Z,94.49
2022-12-15T13:53:17.335Z,95.07
2022-12-15T13:56:10.708Z,95.10
2022-12-15T13:59:33.497Z,94.89
2022-12-15T14:02:37.079Z,94.89
2022-12-15T14:05:43.065Z,95.59
2022-12-15T14:08:47.804Z,95.87
2022-12-15T14:11:54.556Z,95.57
2022-12-15T14:14:57.324Z,95.50
2022-12-15T14:18:02.502Z,95.36
2022-12-15T14:21:07.642Z,95.10
2022-12-15T14:24:43.656Z,95.60
2022-12-15T14:27:50.746Z,96.05
2022-12-15T14:30:57.074Z,96.07
2022-12-15T14:34:06.482Z,95.92
2022-12-15T14:37:17.440Z,96.12
2022-12-15T14:40:26.540Z,95.65
2022-12-15T14:43:39.738Z,95.90
2022-12-15T14:46:47.940Z,95.75
2022-12-15T14:49:51.751Z,96.46
2022-12-15T14:52:59.537Z,96.88
2022-12-15T14:56:20.422Z,97.69
2022-12-15T14:59:33.081Z,97.55
2022-12-15T15:02:36.198Z,97.94
2022-12-15T15:03:09.494Z,92.35
2022-12-15T15:05:41.352Z,97.92
2022-12-15T15:08:52.741Z,97.87
2022-12-15T15:12:12.748Z,97.68
2022-12-15T15:15:21.304Z,97.56
2022-12-15T15:18:27.873Z,97.54
2022-12-15T15:21:36.991Z,97.53
2022-12-15T15:24:39.605Z,97.73
2022-12-15T15:27:42.520Z,97.75
2022-12-15T15:30:48.826Z,97.38
2022-12-15T15:33:52.878Z,97.50
2022-12-15T15:36:55.607Z,97.62
2022-12-15T15:39:58.672Z,97.82
2022-12-15T15:43:01.275Z,98.11
2022-12-15T15:46:11.605Z,98.15
2022-12-15T15:49:17.915Z,98.87
2022-12-15T15:52:22.427Z,99.16
2022-12-15T15:55:32.285Z,99.40
2022-12-15T15:58:36.761Z,99.01
2022-12-15T16:01:39.816Z,99.58
2022-12-15T16:04:44.040Z,99.82
2022-12-15T16:07:47.329Z,99.79
2022-12-15T16:10:52.996Z,99.94
2022-12-15T16:13:56.768Z,99.97
2022-12-15T16:17:00.091Z,100.00
2022-12-15T16:20:04.750Z,100.00
2022-12-15T16:23:15.039Z,100.00
2022-12-15T16:26:29.876Z,100.00
2022-12-15T16:29:32.723Z,99.66
2022-12-15T16:32:35.386Z,99.09
2022-12-15T16:35:39.633Z,98.61
2022-12-15T16:38:43.532Z,98.19
2022-12-15T16:41:46.586Z,98.29
2022-12-15T16:44:49.232Z,98.47
2022-12-15T16:47:53.537Z,99.16
2022-12-15T16:50:59.267Z,99.27
2022-12-15T16:54:02.286Z,99.48
2022-12-15T16:57:06.487Z,99.43
2022-12-15T17:00:21.362Z,99.75
2022-12-15T17:03:28.022Z,99.92
2022-12-15T17:06:30.980Z,99.16
2022-12-15T17:09:36.832Z,99.63
2022-12-15T17:12:39.843Z,100.00
2022-12-15T17:15:42.484Z,100.00
2022-12-15T17:18:45.536Z,100.00
2022-12-15T17:21:51.829Z,100.00
2022-12-15T17:24:55.395Z,100.00
2022-12-15T17:27:58.200Z,100.00
2022-12-15T17:31:01.173Z,100.00
2022-12-15T17:34:26.270Z,99.83
2022-12-15T17:37:34.913Z,100.00
2022-12-15T17:40:38.236Z,100.00
2022-12-15T17:43:41.795Z,100.00
2022-12-15T17:46:44.695Z,100.00
2022-12-15T17:49:48.236Z,100.00
2022-12-15T17:52:50.936Z,100.00
2022-12-15T17:55:54.491Z,100.00
2022-12-15T17:58:57.367Z,100.00
2022-12-15T18:02:00.434Z,100.00
2022-12-15T18:05:03.405Z,100.00
2022-12-15T18:08:17.066Z,100.00
2022-12-15T18:11:20.168Z,99.76
2022-12-15T18:14:23.049Z,99.59
2022-12-15T18:17:26.051Z,99.89
2022-12-15T18:20:29.398Z,99.88
2022-12-15T18:23:35.144Z,99.90
2022-12-15T18:26:38.186Z,100.00
2022-12-15T18:29:41.059Z,100.00
2022-12-15T18:32:44.947Z,100.00
2022-12-15T18:35:51.222Z,100.00
2022-12-15T18:38:54.124Z,100.00
2022-12-15T18:41:57.943Z,100.00
2022-12-15T18:45:02.370Z,100.00
2022-12-15T18:48:32.650Z,100.00
2022-12-15T18:51:35.738Z,100.00
2022-12-15T18:54:38.799Z,100.00
2022-12-15T18:57:41.762Z,100.00
2022-12-15T19:00:45.149Z,100.00
2022-12-15T19:03:48.068Z,100.00
2022-12-15T19:06:50.957Z,100.00
2022-12-15T19:09:53.884Z,100.00
2022-12-15T19:12:58.818Z,100.00
2022-12-15T19:16:03.919Z,100.00
2022-12-15T19:19:30.394Z,100.00
2022-12-15T19:22:33.204Z,100.00
2022-12-15T19:25:40.493Z,100.00
2022-12-15T19:28:43.273Z,100.00
2022-12-15T19:31:47.014Z,100.00
2022-12-15T19:34:50.373Z,100.00
2022-12-15T19:37:56.934Z,100.00
2022-12-15T19:41:01.086Z,100.00
2022-12-15T19:44:14.086Z,99.95
2022-12-15T19:47:16.889Z,100.00
2022-12-15T19:50:29.025Z,100.00
2022-12-15T19:53:32.518Z,100.00
2022-12-15T19:56:36.630Z,100.00
2022-12-15T19:59:39.874Z,100.00
2022-12-15T20:02:44.629Z,100.00
2022-12-15T20:05:51.730Z,100.00
2022-12-15T20:08:56.253Z,100.00
2022-12-15T20:11:59.588Z,100.00
2022-12-15T20:15:15.654Z,100.00
2022-12-15T20:18:19.260Z,100.00
2022-12-15T20:21:24.241Z,100.00
2022-12-15T20:24:28.165Z,100.00
2022-12-15T20:27:31.034Z,100.00
2022-12-15T20:30:35.693Z,100.00
2022-12-15T20:33:38.463Z,100.00
2022-12-15T20:36:42.588Z,100.00
2022-12-15T20:39:45.437Z,100.00
2022-12-15T20:42:49.325Z,100.00
2022-12-15T20:46:02.205Z,100.00
2022-12-15T20:49:13.223Z,100.00
2022-12-15T20:52:22.927Z,100.00
2022-12-15T20:55:26.399Z,100.00
2022-12-15T20:58:33.128Z,100.00
2022-12-15T21:01:38.218Z,100.00
2022-12-15T21:04:41.205Z,100.00
2022-12-15T21:07:44.854Z,100.00
2022-12-15T21:10:47.619Z,100.00
2022-12-15T21:13:52.392Z,100.00
2022-12-15T21:16:55.019Z,100.00
2022-12-15T21:19:58.045Z,100.00
2022-12-15T21:23:00.658Z,100.00
2022-12-15T21:26:04.063Z,100.00
2022-12-15T21:29:12.863Z,100.00
2022-12-15T21:32:15.880Z,100.00
2022-12-15T21:35:19.731Z,100.00
2022-12-15T21:38:34.172Z,100.00
2022-12-15T21:41:42.145Z,100.00
2022-12-15T21:44:45.501Z,100.00
2022-12-15T21:48:07.602Z,100.00
2022-12-15T21:51:17.663Z,100.00
2022-12-15T21:54:28.839Z,100.00
2022-12-15T21:57:33.670Z,100.00
2022-12-15T22:00:39.699Z,100.00
2022-12-15T22:03:50.845Z,100.00
2022-12-15T22:06:54.217Z,100.00
2022-12-15T22:09:57.092Z,100.00
2022-12-15T22:13:00.060Z,100.00
2022-12-15T22:16:03.149Z,100.00
2022-12-15T22:19:12.686Z,100.00
2022-12-15T22:22:16.692Z,100.00
2022-12-15T22:25:24.696Z,100.00
2022-12-15T22:28:28.705Z,100.00
2022-12-15T22:31:31.335Z,100.00
2022-12-15T22:34:34.264Z,100.00
2022-12-15T22:37:36.846Z,100.00
2022-12-15T22:40:40.131Z,100.00
2022-12-15T22:43:44.744Z,100.00
2022-12-15T22:46:49.249Z,100.00
2022-12-15T22:49:53.517Z,100.00
2022-12-15T22:52:57.559Z,100.00
2022-12-15T22:56:03.090Z,100.00
2022-12-15T22:59:10.658Z,100.00
2022-12-15T23:02:13.351Z,100.00
2022-12-15T23:05:18.875Z,100.00
2022-12-15T23:08:21.438Z,100.00
2022-12-15T23:11:37.416Z,100.00
2022-12-15T23:14:58.663Z,100.00
2022-12-15T23:18:01.587Z,100.00
2022-12-15T23:21:04.653Z,100.00
2022-12-15T23:24:07.963Z,100.00
2022-12-15T23:27:11.648Z,100.00
2022-12-15T23:30:14.762Z,100.00
2022-12-15T23:33:18.285Z,100.00
2022-12-15T23:36:21.210Z,100.00
2022-12-15T23:39:24.290Z,100.00
2022-12-15T23:42:27.518Z,100.00
2022-12-15T23:45:30.079Z,100.00
2022-12-15T23:48:35.961Z,100.00
2022-12-15T23:51:38.802Z,100.00
2022-12-15T23:54:41.693Z,100.00
2022-12-15T23:57:44.269Z,100.00
